sensor_id;sensor_type;location;lat;lon;timestamp;P1;durP1;ratioP1;P2;durP2;ratioP2
38262;SDS011;24054;50.128;19.730;2023-03-01T00:01:13;45.47;;;30.77;;
38262;SDS011;24054;50.128;19.730;2023-03-01T00:03:43;47.17;;;31.20;;
38262;SDS011;24054;50.128;19.730;2023-03-01T00:06:10;42.65;;;30.17;;
38262;SDS011;24054;50.128;19.730;2023-03-01T00:08:37;46.95;;;30.02;;
38262;SDS011;24054;50.128;19.730;2023-03-01T00:11:06;45.25;;;30.05;;
38262;SDS011;24054;50.128;19.730;2023-03-01T00:13:34;43.88;;;30.00;;
38262;SDS011;24054;50.128;19.730;2023-03-01T00:16:02;45.60;;;30.33;;
38262;SDS011;24054;50.128;19.730;2023-03-01T00:20:59;42.80;;;28.90;;
38262;SDS011;24054;50.128;19.730;2023-03-01T00:23:26;43.58;;;28.08;;
38262;SDS011;24054;50.128;19.730;2023-03-01T00:25:53;42.45;;;27.55;;
38262;SDS011;24054;50.128;19.730;2023-03-01T00:28:20;41.63;;;27.58;;
38262;SDS011;24054;50.128;19.730;2023-03-01T00:30:47;39.78;;;27.13;;
38262;SDS011;24054;50.128;19.730;2023-03-01T00:33:14;43.00;;;27.48;;
38262;SDS011;24054;50.128;19.730;2023-03-01T00:35:41;42.67;;;27.73;;
38262;SDS011;24054;50.128;19.730;2023-03-01T00:38:10;42.65;;;27.20;;
38262;SDS011;24054;50.128;19.730;2023-03-01T00:40:37;43.03;;;29.00;;
38262;SDS011;24054;50.128;19.730;2023-03-01T00:43:04;40.35;;;27.75;;
38262;SDS011;24054;50.128;19.730;2023-03-01T00:45:32;40.53;;;27.95;;
38262;SDS011;24054;50.128;19.730;2023-03-01T00:47:59;42.55;;;27.40;;
38262;SDS011;24054;50.128;19.730;2023-03-01T00:50:26;44.72;;;30.10;;
38262;SDS011;24054;50.128;19.730;2023-03-01T00:52:53;41.97;;;28.15;;
38262;SDS011;24054;50.128;19.730;2023-03-01T00:55:22;43.40;;;29.08;;
38262;SDS011;24054;50.128;19.730;2023-03-01T00:57:50;41.78;;;28.85;;
38262;SDS011;24054;50.128;19.730;2023-03-01T01:00:17;43.70;;;29.20;;
38262;SDS011;24054;50.128;19.730;2023-03-01T01:02:45;44.15;;;29.80;;
38262;SDS011;24054;50.128;19.730;2023-03-01T01:05:12;45.38;;;29.95;;
38262;SDS011;24054;50.128;19.730;2023-03-01T01:07:39;43.22;;;29.00;;
38262;SDS011;24054;50.128;19.730;2023-03-01T01:10:06;45.97;;;30.85;;
38262;SDS011;24054;50.128;19.730;2023-03-01T01:12:43;44.05;;;29.48;;
38262;SDS011;24054;50.128;19.730;2023-03-01T01:15:10;42.97;;;28.77;;
38262;SDS011;24054;50.128;19.730;2023-03-01T01:17:39;47.42;;;30.42;;
38262;SDS011;24054;50.128;19.730;2023-03-01T01:20:07;45.83;;;30.85;;
38262;SDS011;24054;50.128;19.730;2023-03-01T01:22:35;47.10;;;31.13;;
38262;SDS011;24054;50.128;19.730;2023-03-01T01:25:02;47.63;;;30.80;;
38262;SDS011;24054;50.128;19.730;2023-03-01T01:27:33;46.72;;;30.98;;
38262;SDS011;24054;50.128;19.730;2023-03-01T01:30:01;48.72;;;31.33;;
38262;SDS011;24054;50.128;19.730;2023-03-01T01:32:28;48.28;;;31.95;;
38262;SDS011;24054;50.128;19.730;2023-03-01T01:34:55;50.45;;;33.08;;
38262;SDS011;24054;50.128;19.730;2023-03-01T01:37:22;50.22;;;33.20;;
38262;SDS011;24054;50.128;19.730;2023-03-01T01:39:56;45.47;;;30.73;;
38262;SDS011;24054;50.128;19.730;2023-03-01T01:42:23;52.13;;;33.65;;
38262;SDS011;24054;50.128;19.730;2023-03-01T01:47:54;51.13;;;33.83;;
38262;SDS011;24054;50.128;19.730;2023-03-01T01:50:25;49.13;;;33.33;;
38262;SDS011;24054;50.128;19.730;2023-03-01T01:52:58;51.05;;;34.38;;
38262;SDS011;24054;50.128;19.730;2023-03-01T01:55:25;56.03;;;35.95;;
38262;SDS011;24054;50.128;19.730;2023-03-01T01:57:54;52.95;;;35.25;;
38262;SDS011;24054;50.128;19.730;2023-03-01T02:00:24;51.63;;;35.03;;
38262;SDS011;24054;50.128;19.730;2023-03-01T02:02:54;54.55;;;35.67;;
38262;SDS011;24054;50.128;19.730;2023-03-01T02:05:24;53.20;;;35.80;;
38262;SDS011;24054;50.128;19.730;2023-03-01T02:07:55;53.28;;;34.80;;
38262;SDS011;24054;50.128;19.730;2023-03-01T02:10:24;56.40;;;35.67;;
38262;SDS011;24054;50.128;19.730;2023-03-01T02:12:53;53.33;;;34.75;;
38262;SDS011;24054;50.128;19.730;2023-03-01T02:15:21;55.55;;;36.58;;
38262;SDS011;24054;50.128;19.730;2023-03-01T02:17:50;57.60;;;36.35;;
38262;SDS011;24054;50.128;19.730;2023-03-01T02:20:20;52.42;;;34.17;;
38262;SDS011;24054;50.128;19.730;2023-03-01T02:22:55;51.17;;;34.83;;
38262;SDS011;24054;50.128;19.730;2023-03-01T02:25:28;50.60;;;33.40;;
38262;SDS011;24054;50.128;19.730;2023-03-01T02:28:03;48.95;;;34.45;;
38262;SDS011;24054;50.128;19.730;2023-03-01T02:30:38;52.80;;;35.35;;
38262;SDS011;24054;50.128;19.730;2023-03-01T02:33:26;50.53;;;32.40;;
38262;SDS011;24054;50.128;19.730;2023-03-01T02:35:52;51.72;;;34.38;;
38262;SDS011;24054;50.128;19.730;2023-03-01T02:38:21;53.00;;;34.47;;
38262;SDS011;24054;50.128;19.730;2023-03-01T02:40:49;52.75;;;33.85;;
38262;SDS011;24054;50.128;19.730;2023-03-01T02:43:17;55.17;;;35.33;;
38262;SDS011;24054;50.128;19.730;2023-03-01T02:45:51;49.97;;;34.10;;
38262;SDS011;24054;50.128;19.730;2023-03-01T02:48:19;51.72;;;34.25;;
38262;SDS011;24054;50.128;19.730;2023-03-01T02:50:51;50.75;;;34.80;;
38262;SDS011;24054;50.128;19.730;2023-03-01T02:53:32;53.10;;;34.25;;
38262;SDS011;24054;50.128;19.730;2023-03-01T02:56:05;49.65;;;34.20;;
38262;SDS011;24054;50.128;19.730;2023-03-01T02:58:37;53.08;;;36.05;;
38262;SDS011;24054;50.128;19.730;2023-03-01T03:01:12;64.57;;;34.90;;
38262;SDS011;24054;50.128;19.730;2023-03-01T03:03:41;49.92;;;33.60;;
38262;SDS011;24054;50.128;19.730;2023-03-01T03:06:08;50.63;;;34.67;;
38262;SDS011;24054;50.128;19.730;2023-03-01T03:08:35;53.05;;;34.72;;
38262;SDS011;24054;50.128;19.730;2023-03-01T03:11:02;51.70;;;35.15;;
38262;SDS011;24054;50.128;19.730;2023-03-01T03:13:29;53.55;;;34.80;;
38262;SDS011;24054;50.128;19.730;2023-03-01T03:15:57;52.08;;;35.17;;
38262;SDS011;24054;50.128;19.730;2023-03-01T03:18:25;51.53;;;34.13;;
38262;SDS011;24054;50.128;19.730;2023-03-01T03:20:53;51.72;;;34.70;;
38262;SDS011;24054;50.128;19.730;2023-03-01T03:23:20;52.38;;;35.20;;
38262;SDS011;24054;50.128;19.730;2023-03-01T03:25:48;56.38;;;34.60;;
38262;SDS011;24054;50.128;19.730;2023-03-01T03:28:15;48.38;;;34.72;;
38262;SDS011;24054;50.128;19.730;2023-03-01T03:30:43;53.47;;;34.70;;
38262;SDS011;24054;50.128;19.730;2023-03-01T03:33:11;52.65;;;34.92;;
38262;SDS011;24054;50.128;19.730;2023-03-01T03:35:41;50.47;;;33.20;;
38262;SDS011;24054;50.128;19.730;2023-03-01T03:38:10;50.45;;;34.00;;
38262;SDS011;24054;50.128;19.730;2023-03-01T03:40:43;49.50;;;34.33;;
38262;SDS011;24054;50.128;19.730;2023-03-01T03:43:11;52.10;;;34.47;;
38262;SDS011;24054;50.128;19.730;2023-03-01T03:48:07;50.63;;;32.95;;
38262;SDS011;24054;50.128;19.730;2023-03-01T03:50:35;51.03;;;34.53;;
38262;SDS011;24054;50.128;19.730;2023-03-01T03:53:05;48.75;;;31.55;;
38262;SDS011;24054;50.128;19.730;2023-03-01T03:55:34;49.35;;;33.55;;
38262;SDS011;24054;50.128;19.730;2023-03-01T03:58:04;49.25;;;32.65;;
38262;SDS011;24054;50.128;19.730;2023-03-01T04:00:33;48.53;;;33.53;;
38262;SDS011;24054;50.128;19.730;2023-03-01T04:03:00;50.92;;;33.47;;
38262;SDS011;24054;50.128;19.730;2023-03-01T04:05:28;49.75;;;32.80;;
38262;SDS011;24054;50.128;19.730;2023-03-01T04:07:55;51.58;;;34.03;;
38262;SDS011;24054;50.128;19.730;2023-03-01T04:10:29;48.72;;;33.40;;
38262;SDS011;24054;50.128;19.730;2023-03-01T04:12:57;50.30;;;32.50;;
38262;SDS011;24054;50.128;19.730;2023-03-01T04:15:24;48.38;;;32.78;;
38262;SDS011;24054;50.128;19.730;2023-03-01T04:17:53;50.17;;;33.85;;
38262;SDS011;24054;50.128;19.730;2023-03-01T04:20:22;48.17;;;32.53;;
38262;SDS011;24054;50.128;19.730;2023-03-01T04:22:51;47.45;;;32.28;;
38262;SDS011;24054;50.128;19.730;2023-03-01T04:25:18;47.17;;;32.42;;
38262;SDS011;24054;50.128;19.730;2023-03-01T04:27:47;49.50;;;31.92;;
38262;SDS011;24054;50.128;19.730;2023-03-01T04:30:14;46.20;;;30.90;;
38262;SDS011;24054;50.128;19.730;2023-03-01T04:32:42;47.55;;;32.10;;
38262;SDS011;24054;50.128;19.730;2023-03-01T04:35:09;52.20;;;32.50;;
38262;SDS011;24054;50.128;19.730;2023-03-01T04:37:36;46.47;;;31.67;;
38262;SDS011;24054;50.128;19.730;2023-03-01T04:40:03;46.15;;;31.10;;
38262;SDS011;24054;50.128;19.730;2023-03-01T04:42:40;45.92;;;31.13;;
38262;SDS011;24054;50.128;19.730;2023-03-01T04:45:10;46.97;;;31.15;;
38262;SDS011;24054;50.128;19.730;2023-03-01T04:47:39;45.85;;;30.65;;
38262;SDS011;24054;50.128;19.730;2023-03-01T04:50:06;46.33;;;31.40;;
38262;SDS011;24054;50.128;19.730;2023-03-01T04:52:34;47.00;;;31.80;;
38262;SDS011;24054;50.128;19.730;2023-03-01T04:55:01;45.05;;;30.85;;
38262;SDS011;24054;50.128;19.730;2023-03-01T04:57:29;46.40;;;29.77;;
38262;SDS011;24054;50.128;19.730;2023-03-01T04:59:57;45.42;;;30.92;;
38262;SDS011;24054;50.128;19.730;2023-03-01T05:02:25;46.00;;;30.42;;
38262;SDS011;24054;50.128;19.730;2023-03-01T05:04:52;51.35;;;31.98;;
38262;SDS011;24054;50.128;19.730;2023-03-01T05:07:22;43.60;;;30.80;;
38262;SDS011;24054;50.128;19.730;2023-03-01T05:09:51;44.17;;;31.25;;
38262;SDS011;24054;50.128;19.730;2023-03-01T05:12:19;48.67;;;31.85;;
38262;SDS011;24054;50.128;19.730;2023-03-01T05:14:46;46.13;;;30.67;;
38262;SDS011;24054;50.128;19.730;2023-03-01T05:17:13;44.80;;;30.23;;
38262;SDS011;24054;50.128;19.730;2023-03-01T05:19:41;45.20;;;30.23;;
38262;SDS011;24054;50.128;19.730;2023-03-01T05:22:08;43.65;;;29.67;;
38262;SDS011;24054;50.128;19.730;2023-03-01T05:24:35;44.97;;;30.63;;
38262;SDS011;24054;50.128;19.730;2023-03-01T05:27:04;48.83;;;32.05;;
38262;SDS011;24054;50.128;19.730;2023-03-01T05:32:00;43.95;;;30.75;;
38262;SDS011;24054;50.128;19.730;2023-03-01T05:36:58;47.17;;;31.23;;
38262;SDS011;24054;50.128;19.730;2023-03-01T05:39:26;42.53;;;31.02;;
38262;SDS011;24054;50.128;19.730;2023-03-01T05:41:54;45.15;;;30.20;;
38262;SDS011;24054;50.128;19.730;2023-03-01T05:44:22;41.90;;;29.13;;
38262;SDS011;24054;50.128;19.730;2023-03-01T05:46:50;47.58;;;32.22;;
38262;SDS011;24054;50.128;19.730;2023-03-01T05:49:18;47.72;;;31.58;;
38262;SDS011;24054;50.128;19.730;2023-03-01T05:51:47;45.35;;;30.70;;
38262;SDS011;24054;50.128;19.730;2023-03-01T05:54:16;44.00;;;30.55;;
38262;SDS011;24054;50.128;19.730;2023-03-01T05:56:44;47.80;;;33.25;;
38262;SDS011;24054;50.128;19.730;2023-03-01T05:59:11;47.40;;;30.55;;
38262;SDS011;24054;50.128;19.730;2023-03-01T06:01:38;46.80;;;31.58;;
38262;SDS011;24054;50.128;19.730;2023-03-01T06:04:06;46.53;;;31.35;;
38262;SDS011;24054;50.128;19.730;2023-03-01T06:06:33;49.05;;;33.00;;
38262;SDS011;24054;50.128;19.730;2023-03-01T06:09:02;48.03;;;32.70;;
38262;SDS011;24054;50.128;19.730;2023-03-01T06:11:30;49.83;;;33.08;;
38262;SDS011;24054;50.128;19.730;2023-03-01T06:13:59;47.03;;;31.42;;
38262;SDS011;24054;50.128;19.730;2023-03-01T06:16:26;44.25;;;30.95;;
38262;SDS011;24054;50.128;19.730;2023-03-01T06:18:53;45.70;;;30.75;;
38262;SDS011;24054;50.128;19.730;2023-03-01T06:21:20;44.17;;;31.25;;
38262;SDS011;24054;50.128;19.730;2023-03-01T06:23:47;44.20;;;30.40;;
38262;SDS011;24054;50.128;19.730;2023-03-01T06:26:14;45.92;;;30.55;;
38262;SDS011;24054;50.128;19.730;2023-03-01T06:28:42;42.53;;;29.92;;
38262;SDS011;24054;50.128;19.730;2023-03-01T06:31:11;45.47;;;30.45;;
38262;SDS011;24054;50.128;19.730;2023-03-01T06:33:38;39.97;;;29.30;;
38262;SDS011;24054;50.128;19.730;2023-03-01T06:36:05;43.83;;;30.40;;
38262;SDS011;24054;50.128;19.730;2023-03-01T06:38:33;44.43;;;30.10;;
38262;SDS011;24054;50.128;19.730;2023-03-01T06:41:00;46.10;;;30.42;;
38262;SDS011;24054;50.128;19.730;2023-03-01T06:43:27;45.53;;;29.25;;
38262;SDS011;24054;50.128;19.730;2023-03-01T06:45:55;44.92;;;29.77;;
38262;SDS011;24054;50.128;19.730;2023-03-01T06:48:22;50.38;;;30.75;;
38262;SDS011;24054;50.128;19.730;2023-03-01T06:50:49;45.35;;;30.15;;
38262;SDS011;24054;50.128;19.730;2023-03-01T06:53:16;63.03;;;30.20;;
38262;SDS011;24054;50.128;19.730;2023-03-01T06:55:43;50.97;;;28.40;;
38262;SDS011;24054;50.128;19.730;2023-03-01T06:58:10;51.95;;;29.13;;
38262;SDS011;24054;50.128;19.730;2023-03-01T07:00:37;51.10;;;29.17;;
38262;SDS011;24054;50.128;19.730;2023-03-01T07:03:07;46.97;;;29.33;;
38262;SDS011;24054;50.128;19.730;2023-03-01T07:05:35;48.80;;;28.40;;
38262;SDS011;24054;50.128;19.730;2023-03-01T07:08:02;46.22;;;28.52;;
38262;SDS011;24054;50.128;19.730;2023-03-01T07:10:29;53.17;;;28.92;;
38262;SDS011;24054;50.128;19.730;2023-03-01T07:12:56;43.28;;;27.70;;
38262;SDS011;24054;50.128;19.730;2023-03-01T07:15:25;45.20;;;26.77;;
38262;SDS011;24054;50.128;19.730;2023-03-01T07:17:52;51.70;;;28.60;;
38262;SDS011;24054;50.128;19.730;2023-03-01T07:20:21;42.03;;;26.45;;
38262;SDS011;24054;50.128;19.730;2023-03-01T07:22:50;43.10;;;26.90;;
38262;SDS011;24054;50.128;19.730;2023-03-01T07:25:17;47.53;;;26.85;;
38262;SDS011;24054;50.128;19.730;2023-03-01T07:27:48;42.67;;;25.80;;
38262;SDS011;24054;50.128;19.730;2023-03-01T07:30:17;44.65;;;27.08;;
38262;SDS011;24054;50.128;19.730;2023-03-01T07:32:45;39.67;;;26.92;;
38262;SDS011;24054;50.128;19.730;2023-03-01T07:35:12;39.95;;;25.08;;
38262;SDS011;24054;50.128;19.730;2023-03-01T07:37:42;38.03;;;25.45;;
38262;SDS011;24054;50.128;19.730;2023-03-01T07:42:37;39.72;;;24.48;;
38262;SDS011;24054;50.128;19.730;2023-03-01T07:45:05;37.78;;;24.67;;
38262;SDS011;24054;50.128;19.730;2023-03-01T07:47:33;34.17;;;23.58;;
38262;SDS011;24054;50.128;19.730;2023-03-01T07:50:00;34.25;;;23.45;;
38262;SDS011;24054;50.128;19.730;2023-03-01T07:52:27;36.03;;;23.33;;
38262;SDS011;24054;50.128;19.730;2023-03-01T07:54:57;36.55;;;23.15;;
38262;SDS011;24054;50.128;19.730;2023-03-01T07:57:27;32.55;;;21.73;;
38262;SDS011;24054;50.128;19.730;2023-03-01T07:59:56;31.80;;;20.52;;
38262;SDS011;24054;50.128;19.730;2023-03-01T08:02:24;40.95;;;24.30;;
38262;SDS011;24054;50.128;19.730;2023-03-01T08:04:51;67.65;;;31.17;;
38262;SDS011;24054;50.128;19.730;2023-03-01T08:07:18;79.53;;;36.50;;
38262;SDS011;24054;50.128;19.730;2023-03-01T08:09:46;104.63;;;43.07;;
38262;SDS011;24054;50.128;19.730;2023-03-01T08:12:15;110.45;;;44.88;;
38262;SDS011;24054;50.128;19.730;2023-03-01T08:14:42;116.00;;;46.75;;
38262;SDS011;24054;50.128;19.730;2023-03-01T08:17:13;122.95;;;46.88;;
38262;SDS011;24054;50.128;19.730;2023-03-01T08:19:40;110.18;;;46.72;;
38262;SDS011;24054;50.128;19.730;2023-03-01T08:22:08;114.53;;;46.70;;
38262;SDS011;24054;50.128;19.730;2023-03-01T08:24:35;114.18;;;45.47;;
38262;SDS011;24054;50.128;19.730;2023-03-01T08:27:02;113.70;;;44.97;;
38262;SDS011;24054;50.128;19.730;2023-03-01T08:29:34;111.60;;;44.53;;
38262;SDS011;24054;50.128;19.730;2023-03-01T08:32:01;103.45;;;43.53;;
38262;SDS011;24054;50.128;19.730;2023-03-01T08:34:28;103.20;;;42.88;;
38262;SDS011;24054;50.128;19.730;2023-03-01T08:36:56;94.00;;;42.20;;
38262;SDS011;24054;50.128;19.730;2023-03-01T08:39:23;97.30;;;39.53;;
38262;SDS011;24054;50.128;19.730;2023-03-01T08:41:50;89.88;;;38.60;;
38262;SDS011;24054;50.128;19.730;2023-03-01T08:44:17;91.10;;;39.92;;
38262;SDS011;24054;50.128;19.730;2023-03-01T08:46:47;88.68;;;37.58;;
38262;SDS011;24054;50.128;19.730;2023-03-01T08:49:17;86.97;;;38.00;;
38262;SDS011;24054;50.128;19.730;2023-03-01T08:51:45;85.32;;;36.25;;
38262;SDS011;24054;50.128;19.730;2023-03-01T08:54:14;89.97;;;38.03;;
38262;SDS011;24054;50.128;19.730;2023-03-01T08:56:43;83.72;;;36.10;;
38262;SDS011;24054;50.128;19.730;2023-03-01T08:59:11;79.80;;;37.38;;
38262;SDS011;24054;50.128;19.730;2023-03-01T09:01:39;85.07;;;37.28;;
38262;SDS011;24054;50.128;19.730;2023-03-01T09:04:09;84.00;;;37.55;;
38262;SDS011;24054;50.128;19.730;2023-03-01T09:06:37;84.68;;;38.28;;
38262;SDS011;24054;50.128;19.730;2023-03-01T09:09:04;75.30;;;36.60;;
38262;SDS011;24054;50.128;19.730;2023-03-01T09:13:59;71.40;;;32.90;;
38262;SDS011;24054;50.128;19.730;2023-03-01T09:16:26;70.57;;;34.30;;
38262;SDS011;24054;50.128;19.730;2023-03-01T09:18:54;70.53;;;33.53;;
38262;SDS011;24054;50.128;19.730;2023-03-01T09:21:23;76.22;;;33.65;;
38262;SDS011;24054;50.128;19.730;2023-03-01T09:23:50;66.45;;;31.27;;
38262;SDS011;24054;50.128;19.730;2023-03-01T09:26:18;68.00;;;32.90;;
38262;SDS011;24054;50.128;19.730;2023-03-01T09:28:47;63.47;;;31.27;;
38262;SDS011;24054;50.128;19.730;2023-03-01T09:31:14;62.95;;;31.65;;
38262;SDS011;24054;50.128;19.730;2023-03-01T09:33:44;64.05;;;31.98;;
38262;SDS011;24054;50.128;19.730;2023-03-01T09:36:13;64.20;;;30.77;;
38262;SDS011;24054;50.128;19.730;2023-03-01T09:38:42;59.45;;;28.50;;
38262;SDS011;24054;50.128;19.730;2023-03-01T09:41:10;57.83;;;26.15;;
38262;SDS011;24054;50.128;19.730;2023-03-01T09:43:49;53.85;;;27.58;;
38262;SDS011;24054;50.128;19.730;2023-03-01T09:46:19;52.08;;;25.33;;
38262;SDS011;24054;50.128;19.730;2023-03-01T09:48:50;47.72;;;24.52;;
38262;SDS011;24054;50.128;19.730;2023-03-01T09:51:22;45.47;;;23.90;;
38262;SDS011;24054;50.128;19.730;2023-03-01T09:53:54;47.03;;;24.00;;
38262;SDS011;24054;50.128;19.730;2023-03-01T09:56:29;47.75;;;22.73;;
38262;SDS011;24054;50.128;19.730;2023-03-01T09:59:03;50.67;;;23.05;;
38262;SDS011;24054;50.128;19.730;2023-03-01T10:01:44;44.40;;;22.23;;
38262;SDS011;24054;50.128;19.730;2023-03-01T10:04:28;44.47;;;22.98;;
38262;SDS011;24054;50.128;19.730;2023-03-01T10:07:12;42.08;;;21.23;;
38262;SDS011;24054;50.128;19.730;2023-03-01T10:09:50;42.92;;;21.60;;
38262;SDS011;24054;50.128;19.730;2023-03-01T10:12:18;42.92;;;21.75;;
38262;SDS011;24054;50.128;19.730;2023-03-01T10:14:51;42.92;;;21.45;;
38262;SDS011;24054;50.128;19.730;2023-03-01T10:17:26;36.72;;;19.95;;
38262;SDS011;24054;50.128;19.730;2023-03-01T10:19:59;40.60;;;20.15;;
38262;SDS011;24054;50.128;19.730;2023-03-01T10:22:41;38.60;;;19.23;;
38262;SDS011;24054;50.128;19.730;2023-03-01T10:25:17;37.97;;;19.13;;
38262;SDS011;24054;50.128;19.730;2023-03-01T10:27:52;33.78;;;18.17;;
38262;SDS011;24054;50.128;19.730;2023-03-01T10:30:21;34.65;;;17.67;;
38262;SDS011;24054;50.128;19.730;2023-03-01T10:32:55;30.63;;;17.20;;
38262;SDS011;24054;50.128;19.730;2023-03-01T10:35:25;25.92;;;15.52;;
38262;SDS011;24054;50.128;19.730;2023-03-01T10:37:57;26.95;;;15.65;;
38262;SDS011;24054;50.128;19.730;2023-03-01T10:40:29;25.92;;;14.93;;
38262;SDS011;24054;50.128;19.730;2023-03-01T10:45:34;25.23;;;15.27;;
38262;SDS011;24054;50.128;19.730;2023-03-01T10:48:04;27.65;;;14.95;;
38262;SDS011;24054;50.128;19.730;2023-03-01T10:50:36;23.80;;;14.40;;
38262;SDS011;24054;50.128;19.730;2023-03-01T10:53:16;23.48;;;13.98;;
38262;SDS011;24054;50.128;19.730;2023-03-01T10:55:56;24.73;;;14.05;;
38262;SDS011;24054;50.128;19.730;2023-03-01T10:58:25;24.52;;;13.65;;
38262;SDS011;24054;50.128;19.730;2023-03-01T11:00:53;24.08;;;14.15;;
38262;SDS011;24054;50.128;19.730;2023-03-01T11:03:23;24.02;;;13.30;;
38262;SDS011;24054;50.128;19.730;2023-03-01T11:05:52;24.05;;;13.70;;
38262;SDS011;24054;50.128;19.730;2023-03-01T11:08:31;23.23;;;14.57;;
38262;SDS011;24054;50.128;19.730;2023-03-01T11:11:19;24.75;;;13.63;;
38262;SDS011;24054;50.128;19.730;2023-03-01T11:13:58;23.58;;;14.05;;
38262;SDS011;24054;50.128;19.730;2023-03-01T11:16:31;23.02;;;13.10;;
38262;SDS011;24054;50.128;19.730;2023-03-01T11:19:04;23.33;;;12.82;;
38262;SDS011;24054;50.128;19.730;2023-03-01T11:21:52;21.17;;;13.07;;
38262;SDS011;24054;50.128;19.730;2023-03-01T11:24:24;18.88;;;12.18;;
38262;SDS011;24054;50.128;19.730;2023-03-01T11:26:57;22.52;;;12.18;;
38262;SDS011;24054;50.128;19.730;2023-03-01T11:29:30;20.65;;;12.15;;
38262;SDS011;24054;50.128;19.730;2023-03-01T11:32:03;18.10;;;12.38;;
38262;SDS011;24054;50.128;19.730;2023-03-01T11:34:38;18.98;;;11.43;;
38262;SDS011;24054;50.128;19.730;2023-03-01T11:37:15;23.83;;;12.23;;
38262;SDS011;24054;50.128;19.730;2023-03-01T11:39:52;19.10;;;12.07;;
38262;SDS011;24054;50.128;19.730;2023-03-01T11:42:28;21.88;;;12.85;;
38262;SDS011;24054;50.128;19.730;2023-03-01T11:47:35;19.27;;;11.70;;
38262;SDS011;24054;50.128;19.730;2023-03-01T11:50:25;22.65;;;11.38;;
38262;SDS011;24054;50.128;19.730;2023-03-01T11:53:02;17.38;;;11.35;;
38262;SDS011;24054;50.128;19.730;2023-03-01T11:55:52;15.02;;;10.70;;
38262;SDS011;24054;50.128;19.730;2023-03-01T11:58:36;18.75;;;12.27;;
38262;SDS011;24054;50.128;19.730;2023-03-01T12:01:32;18.23;;;11.07;;
38262;SDS011;24054;50.128;19.730;2023-03-01T12:04:25;18.63;;;11.45;;
38262;SDS011;24054;50.128;19.730;2023-03-01T12:07:16;17.15;;;10.80;;
38262;SDS011;24054;50.128;19.730;2023-03-01T12:09:50;15.75;;;10.35;;
38262;SDS011;24054;50.128;19.730;2023-03-01T12:12:32;15.18;;;10.38;;
38262;SDS011;24054;50.128;19.730;2023-03-01T12:15:21;16.27;;;10.85;;
38262;SDS011;24054;50.128;19.730;2023-03-01T12:21:05;17.80;;;10.38;;
38262;SDS011;24054;50.128;19.730;2023-03-01T12:23:46;16.90;;;10.38;;
38262;SDS011;24054;50.128;19.730;2023-03-01T12:26:44;13.95;;;9.63;;
38262;SDS011;24054;50.128;19.730;2023-03-01T12:29:24;17.10;;;11.15;;
38262;SDS011;24054;50.128;19.730;2023-03-01T12:37:56;13.75;;;9.50;;
38262;SDS011;24054;50.128;19.730;2023-03-01T12:40:34;19.60;;;10.57;;
38262;SDS011;24054;50.128;19.730;2023-03-01T12:43:18;12.70;;;9.48;;
38262;SDS011;24054;50.128;19.730;2023-03-01T12:46:03;12.23;;;8.75;;
38262;SDS011;24054;50.128;19.730;2023-03-01T12:51:14;13.43;;;9.50;;
38262;SDS011;24054;50.128;19.730;2023-03-01T12:53:46;12.10;;;8.00;;
38262;SDS011;24054;50.128;19.730;2023-03-01T12:56:15;11.65;;;8.90;;
38262;SDS011;24054;50.128;19.730;2023-03-01T12:58:48;13.93;;;8.70;;
38262;SDS011;24054;50.128;19.730;2023-03-01T13:01:22;11.88;;;9.00;;
38262;SDS011;24054;50.128;19.730;2023-03-01T13:06:34;11.45;;;8.25;;
38262;SDS011;24054;50.128;19.730;2023-03-01T13:09:09;10.90;;;8.40;;
38262;SDS011;24054;50.128;19.730;2023-03-01T13:11:45;11.38;;;8.40;;
38262;SDS011;24054;50.128;19.730;2023-03-01T13:17:30;11.77;;;8.18;;
38262;SDS011;24054;50.128;19.730;2023-03-01T13:22:29;11.20;;;8.02;;
38262;SDS011;24054;50.128;19.730;2023-03-01T13:25:03;13.27;;;8.60;;
38262;SDS011;24054;50.128;19.730;2023-03-01T13:27:40;11.30;;;7.93;;
38262;SDS011;24054;50.128;19.730;2023-03-01T13:30:37;10.98;;;7.82;;
38262;SDS011;24054;50.128;19.730;2023-03-01T13:39:29;10.98;;;7.90;;
38262;SDS011;24054;50.128;19.730;2023-03-01T13:44:57;9.98;;;7.65;;
38262;SDS011;24054;50.128;19.730;2023-03-01T13:47:25;23.65;;;8.05;;
38262;SDS011;24054;50.128;19.730;2023-03-01T13:49:55;11.02;;;7.75;;
38262;SDS011;24054;50.128;19.730;2023-03-01T13:52:32;8.52;;;6.38;;
38262;SDS011;24054;50.128;19.730;2023-03-01T13:55:14;9.60;;;6.90;;
38262;SDS011;24054;50.128;19.730;2023-03-01T13:57:45;8.88;;;6.60;;
38262;SDS011;24054;50.128;19.730;2023-03-01T14:00:26;9.10;;;7.05;;
38262;SDS011;24054;50.128;19.730;2023-03-01T14:03:01;9.63;;;6.70;;
38262;SDS011;24054;50.128;19.730;2023-03-01T14:05:35;10.88;;;6.75;;
38262;SDS011;24054;50.128;19.730;2023-03-01T14:08:17;10.77;;;6.68;;
38262;SDS011;24054;50.128;19.730;2023-03-01T14:10:51;10.35;;;6.88;;
38262;SDS011;24054;50.128;19.730;2023-03-01T14:13:30;9.80;;;6.80;;
38262;SDS011;24054;50.128;19.730;2023-03-01T14:16:12;9.55;;;7.03;;
38262;SDS011;24054;50.128;19.730;2023-03-01T14:18:51;10.05;;;6.85;;
38262;SDS011;24054;50.128;19.730;2023-03-01T14:21:29;8.32;;;6.20;;
38262;SDS011;24054;50.128;19.730;2023-03-01T14:23:57;7.95;;;6.05;;
38262;SDS011;24054;50.128;19.730;2023-03-01T14:26:27;9.23;;;6.30;;
38262;SDS011;24054;50.128;19.730;2023-03-01T14:28:56;8.10;;;6.20;;
38262;SDS011;24054;50.128;19.730;2023-03-01T14:31:31;9.52;;;6.35;;
38262;SDS011;24054;50.128;19.730;2023-03-01T14:34:03;8.10;;;5.60;;
38262;SDS011;24054;50.128;19.730;2023-03-01T14:36:32;9.32;;;5.65;;
38262;SDS011;24054;50.128;19.730;2023-03-01T14:39:00;9.23;;;6.35;;
38262;SDS011;24054;50.128;19.730;2023-03-01T14:41:34;9.15;;;6.25;;
38262;SDS011;24054;50.128;19.730;2023-03-01T14:44:03;8.30;;;5.82;;
38262;SDS011;24054;50.128;19.730;2023-03-01T14:46:34;9.65;;;5.40;;
38262;SDS011;24054;50.128;19.730;2023-03-01T14:49:04;7.95;;;5.70;;
38262;SDS011;24054;50.128;19.730;2023-03-01T14:51:37;7.93;;;5.53;;
38262;SDS011;24054;50.128;19.730;2023-03-01T14:54:15;8.18;;;5.97;;
38262;SDS011;24054;50.128;19.730;2023-03-01T14:56:51;8.38;;;5.80;;
38262;SDS011;24054;50.128;19.730;2023-03-01T14:59:21;8.65;;;6.13;;
38262;SDS011;24054;50.128;19.730;2023-03-01T15:01:49;7.70;;;5.63;;
38262;SDS011;24054;50.128;19.730;2023-03-01T15:04:19;7.25;;;5.70;;
38262;SDS011;24054;50.128;19.730;2023-03-01T15:06:50;8.55;;;5.93;;
38262;SDS011;24054;50.128;19.730;2023-03-01T15:09:17;7.68;;;5.50;;
38262;SDS011;24054;50.128;19.730;2023-03-01T15:11:46;8.38;;;6.25;;
38262;SDS011;24054;50.128;19.730;2023-03-01T15:14:28;7.90;;;5.93;;
38262;SDS011;24054;50.128;19.730;2023-03-01T15:17:13;12.05;;;6.30;;
38262;SDS011;24054;50.128;19.730;2023-03-01T15:19:54;7.28;;;5.32;;
38262;SDS011;24054;50.128;19.730;2023-03-01T15:22:21;6.82;;;5.30;;
38262;SDS011;24054;50.128;19.730;2023-03-01T15:24:50;8.48;;;5.85;;